Time;durP1;ratioP1;P1;durP2;ratioP2;P2;SDS_P1;SDS_P2;PMS_P1;PMS_P2;Temp;Humidity;BMP_temperature;BMP_pressure;BME280_temperature;BME280_humidity;BME280_pressure;Samples;Min_cycle;Max_cycle;Signal;HPM_P1;HPM_P2
2023/09/15 00:00:42;;;;;;;5.93;4.72;;;14.00;99.90;;;;;;5101638;28;20096;-64
2023/09/15 00:03:08;;;;;;;11.48;4.95;;;13.90;99.90;;;;;;5080576;28;20028;-63
2023/09/15 00:05:33;;;;;;;9.68;5.13;;;13.90;99.90;;;;;;5077155;28;20153;-64
2023/09/15 00:08:04;;;;;;;6.05;5.22;;;13.90;99.90;;;;;;5095206;28;20476;-63
2023/09/15 00:10:37;;;;;;;6.68;4.70;;;13.80;99.90;;;;;;5076648;28;20111;-63
2023/09/15 00:13:02;;;;;;;12.63;5.10;;;13.80;99.90;;;;;;5095372;28;20051;-63
2023/09/15 00:15:28;;;;;;;9.05;5.00;;;13.80;99.90;;;;;;5094745;28;20462;-63
2023/09/15 00:17:55;;;;;;;5.80;5.18;;;13.70;99.90;;;;;;5076409;28;20474;-63
2023/09/15 00:20:21;;;;;;;13.68;5.30;;;13.70;99.90;;;;;;5076416;28;20480;-63
2023/09/15 00:22:49;;;;;;;9.88;5.13;;;13.70;99.90;;;;;;5094592;28;20028;-63
2023/09/15 00:25:23;;;;;;;8.70;5.30;;;13.70;99.90;;;;;;5094497;28;20089;-63
2023/09/15 00:27:51;;;;;;;10.63;5.72;;;13.60;99.90;;;;;;5094911;28;20031;-63
2023/09/15 00:30:18;;;;;;;9.40;5.33;;;13.60;99.90;;;;;;5094364;28;20094;-63
2023/09/15 00:32:48;;;;;;;14.95;5.75;;;13.60;99.90;;;;;;5094624;28;20266;-63
2023/09/15 00:35:18;;;;;;;8.85;6.07;;;13.60;99.90;;;;;;5094608;28;20024;-63
2023/09/15 00:37:46;;;;;;;10.93;5.88;;;13.60;99.90;;;;;;5094237;28;20082;-63
2023/09/15 00:40:15;;;;;;;7.63;5.63;;;13.70;99.90;;;;;;5094315;28;20110;-64
2023/09/15 00:42:49;;;;;;;11.00;5.80;;;13.70;99.90;;;;;;5094344;28;20035;-63
2023/09/15 00:45:15;;;;;;;12.45;6.38;;;13.70;99.90;;;;;;5075778;28;20038;-63
2023/09/15 00:47:43;;;;;;;10.02;6.05;;;13.70;99.90;;;;;;5094180;28;20032;-63
2023/09/15 00:50:13;;;;;;;9.82;6.15;;;13.70;99.90;;;;;;5094119;28;20039;-63
2023/09/15 00:52:39;;;;;;;8.57;5.43;;;13.70;99.90;;;;;;5075725;28;20056;-63
2023/09/15 00:55:08;;;;;;;7.93;5.60;;;13.80;99.90;;;;;;5093792;28;20122;-63
2023/09/15 00:57:37;;;;;;;10.77;5.75;;;13.80;99.90;;;;;;5093821;28;20122;-63
2023/09/15 01:00:05;;;;;;;13.73;5.75;;;13.80;99.90;;;;;;5075844;28;20496;-63
2023/09/15 01:02:32;;;;;;;8.43;5.10;;;13.90;99.90;;;;;;5094114;28;20020;-63
2023/09/15 01:04:57;;;;;;;6.68;5.60;;;13.90;99.90;;;;;;5093942;28;20593;-63
2023/09/15 01:07:23;;;;;;;6.47;5.55;;;13.90;99.90;;;;;;5093625;28;20039;-63
2023/09/15 01:09:50;;;;;;;6.65;4.88;;;13.90;99.90;;;;;;5076024;28;20055;-63
2023/09/15 01:12:16;;;;;;;11.85;5.50;;;13.90;99.90;;;;;;5075730;28;20115;-63
2023/09/15 01:14:42;;;;;;;7.75;5.20;;;13.90;99.90;;;;;;5093902;28;20048;-63
2023/09/15 01:17:13;;;;;;;7.05;5.40;;;13.90;99.90;;;;;;5093960;28;20028;-63
2023/09/15 01:20:11;;;;;;;9.20;4.88;;;14.00;99.90;;;;;;5093773;28;20028;-63
2023/09/15 01:23:10;;;;;;;6.63;4.68;;;14.00;99.90;;;;;;5037828;28;20046;-63
2023/09/15 01:26:07;;;;;;;8.05;4.97;;;14.00;99.90;;;;;;5093986;28;20028;-63
2023/09/15 01:28:51;;;;;;;6.10;4.57;;;14.00;99.90;;;;;;5093704;28;20031;-63
2023/09/15 01:31:18;;;;;;;5.07;4.50;;;14.00;99.90;;;;;;5093401;28;20043;-63
2023/09/15 01:33:45;;;;;;;7.93;4.82;;;14.00;99.90;;;;;;5075986;28;20122;-63
2023/09/15 01:36:11;;;;;;;7.80;4.75;;;14.00;99.90;;;;;;5093337;28;20024;-63
2023/09/15 01:38:37;;;;;;;6.70;5.03;;;14.00;99.90;;;;;;5075465;28;20032;-63
2023/09/15 01:41:03;;;;;;;6.75;4.50;;;14.10;99.90;;;;;;5093640;28;20028;-63
2023/09/15 01:43:29;;;;;;;6.90;4.80;;;14.10;99.90;;;;;;5093673;28;20020;-63
2023/09/15 01:45:55;;;;;;;5.63;4.57;;;14.10;99.90;;;;;;5076290;28;20030;-63
2023/09/15 01:48:23;;;;;;;6.82;4.60;;;14.00;99.90;;;;;;5094286;28;20024;-63
2023/09/15 01:50:50;;;;;;;8.40;4.50;;;14.10;99.90;;;;;;5093989;28;20031;-63
2023/09/15 01:53:15;;;;;;;6.03;4.65;;;14.10;99.90;;;;;;5094089;28;20043;-63
2023/09/15 01:55:42;;;;;;;7.57;4.47;;;14.10;99.90;;;;;;5093664;28;20020;-63
2023/09/15 01:58:08;;;;;;;10.25;4.65;;;14.00;99.90;;;;;;5093133;28;20539;-62
2023/09/15 02:00:35;;;;;;;5.20;3.97;;;14.00;99.90;;;;;;5093656;28;20040;-63
2023/09/15 02:03:00;;;;;;;5.05;3.95;;;13.90;99.90;;;;;;5075340;28;20032;-63
2023/09/15 02:05:26;;;;;;;8.48;4.30;;;13.90;99.90;;;;;;5075237;28;20072;-63
2023/09/15 02:07:52;;;;;;;8.27;4.70;;;13.80;99.90;;;;;;5074987;28;20032;-64
2023/09/15 02:10:17;;;;;;;5.53;4.57;;;13.80;99.90;;;;;;5095315;28;20024;-63
2023/09/15 02:12:43;;;;;;;6.95;4.43;;;13.80;99.90;;;;;;5096826;28;20389;-63
2023/09/15 02:15:10;;;;;;;7.82;5.10;;;13.80;99.90;;;;;;5097080;28;20078;-63
2023/09/15 02:17:37;;;;;;;6.45;4.57;;;13.70;99.90;;;;;;5097086;28;20028;-65
2023/09/15 02:20:12;;;;;;;8.23;5.38;;;13.60;99.90;;;;;;5098865;28;20028;-63
2023/09/15 02:22:42;;;;;;;5.40;4.55;;;13.50;99.90;;;;;;5097415;28;20024;-63
2023/09/15 02:25:11;;;;;;;5.60;4.70;;;13.50;99.90;;;;;;5096854;28;20359;-63
2023/09/15 02:27:38;;;;;;;9.45;5.60;;;13.50;99.90;;;;;;5096997;28;20095;-63
2023/09/15 02:30:04;;;;;;;7.93;5.45;;;13.50;99.90;;;;;;5096735;28;20024;-63
2023/09/15 02:32:30;;;;;;;8.82;5.13;;;13.50;99.90;;;;;;5096494;28;20028;-63
2023/09/15 02:34:56;;;;;;;7.15;4.90;;;13.50;99.90;;;;;;5096963;28;20148;-63
2023/09/15 02:37:21;;;;;;;5.72;5.10;;;13.50;99.90;;;;;;5078459;28;20040;-63
2023/09/15 02:39:47;;;;;;;5.70;4.60;;;13.40;99.90;;;;;;5096651;28;20028;-63
2023/09/15 02:42:13;;;;;;;7.43;4.40;;;13.40;99.90;;;;;;5097089;28;20530;-63
2023/09/15 02:44:38;;;;;;;5.72;5.18;;;13.40;99.90;;;;;;5095262;28;20052;-63
2023/09/15 02:47:04;;;;;;;6.15;4.75;;;13.40;99.90;;;;;;5096478;28;20031;-63
2023/09/15 02:49:30;;;;;;;6.00;4.80;;;13.30;99.90;;;;;;5096623;28;20039;-63
2023/09/15 02:51:57;;;;;;;9.18;5.30;;;13.30;99.90;;;;;;5096591;28;20050;-63
2023/09/15 02:54:23;;;;;;;9.23;5.10;;;13.30;99.90;;;;;;5078622;28;20415;-63
2023/09/15 02:56:48;;;;;;;8.55;5.28;;;13.20;99.90;;;;;;5078060;28;20024;-63
2023/09/15 02:59:15;;;;;;;9.68;5.32;;;13.10;99.90;;;;;;5095813;28;20570;-63
2023/09/15 03:01:43;;;;;;;8.80;4.93;;;13.10;99.90;;;;;;5096190;28;20024;-63
2023/09/15 03:04:08;;;;;;;5.80;5.03;;;13.00;99.90;;;;;;5095853;28;20370;-63
2023/09/15 03:06:34;;;;;;;10.43;5.50;;;13.00;99.90;;;;;;5096113;28;20028;-63
2023/09/15 03:08:59;;;;;;;10.30;5.47;;;12.90;99.90;;;;;;5096035;28;20024;-63
2023/09/15 03:11:25;;;;;;;6.07;5.30;;;12.90;99.90;;;;;;5096393;28;20063;-63
2023/09/15 03:13:51;;;;;;;8.05;5.22;;;12.80;99.90;;;;;;5096007;28;20031;-63
2023/09/15 03:16:16;;;;;;;9.60;5.60;;;12.90;99.90;;;;;;5096220;28;20020;-63
2023/09/15 03:18:46;;;;;;;9.77;5.13;;;12.90;99.90;;;;;;5095701;28;20063;-63
2023/09/15 03:21:12;;;;;;;8.30;6.07;;;12.80;99.90;;;;;;5094780;28;20389;-63
2023/09/15 03:23:41;;;;;;;6.47;5.50;;;12.80;99.90;;;;;;5096060;28;20024;-63
2023/09/15 03:26:06;;;;;;;6.25;5.20;;;12.80;99.90;;;;;;5096085;28;20377;-63
2023/09/15 03:28:33;;;;;;;6.43;4.78;;;12.70;99.90;;;;;;5095606;28;20032;-63
2023/09/15 03:31:00;;;;;;;13.60;5.07;;;12.70;99.90;;;;;;5095661;28;20032;-63
2023/09/15 03:33:25;;;;;;;11.75;7.22;;;12.70;99.90;;;;;;5077486;28;20486;-63
2023/09/15 03:35:51;;;;;;;11.23;5.63;;;12.70;99.90;;;;;;5077359;28;20024;-63
2023/09/15 03:38:17;;;;;;;8.52;5.38;;;12.70;99.90;;;;;;5095528;28;20028;-63
2023/09/15 03:40:43;;;;;;;8.00;5.40;;;12.70;99.90;;;;;;5095577;28;20024;-63
2023/09/15 03:43:08;;;;;;;7.10;5.38;;;12.60;99.90;;;;;;5095591;28;20048;-63
2023/09/15 03:45:34;;;;;;;9.98;4.93;;;12.60;99.90;;;;;;5095157;28;20028;-63
2023/09/15 03:48:00;;;;;;;6.60;5.47;;;12.60;99.90;;;;;;5077072;28;20039;-67
2023/09/15 03:50:26;;;;;;;5.72;5.22;;;12.50;99.90;;;;;;5095264;28;20023;-63
2023/09/15 03:52:51;;;;;;;15.30;5.63;;;12.50;99.90;;;;;;5077057;28;20481;-62
2023/09/15 03:55:17;;;;;;;9.82;6.00;;;12.50;99.90;;;;;;5095212;28;20038;-62
2023/09/15 03:57:43;;;;;;;10.07;5.72;;;12.50;99.90;;;;;;5094818;28;20355;-62
2023/09/15 04:00:15;;;;;;;9.82;5.90;;;12.40;99.90;;;;;;5095200;28;20066;-61
2023/09/15 04:02:41;;;;;;;9.35;5.80;;;12.40;99.90;;;;;;5095295;28;20031;-63
2023/09/15 04:05:07;;;;;;;6.18;5.50;;;12.40;99.90;;;;;;5076820;28;20095;-63
2023/09/15 04:07:33;;;;;;;7.80;5.32;;;12.40;99.90;;;;;;5076709;28;20497;-63
2023/09/15 04:09:58;;;;;;;10.13;6.00;;;12.30;99.90;;;;;;5094920;28;20032;-63
2023/09/15 04:12:24;;;;;;;6.95;5.50;;;12.30;99.90;;;;;;5095096;28;20031;-64
2023/09/15 04:14:50;;;;;;;13.45;5.93;;;12.30;99.90;;;;;;5094902;28;20028;-64
2023/09/15 04:17:15;;;;;;;8.10;5.75;;;12.30;99.90;;;;;;5094793;28;20093;-64
2023/09/15 04:19:41;;;;;;;13.38;5.90;;;12.30;99.90;;;;;;5094804;28;20048;-64
2023/09/15 04:22:06;;;;;;;10.38;6.30;;;12.20;99.90;;;;;;5093541;28;20110;-64
2023/09/15 04:24:32;;;;;;;8.50;5.90;;;12.20;99.90;;;;;;5094546;28;20103;-64
2023/09/15 04:26:58;;;;;;;8.98;5.82;;;12.30;99.90;;;;;;5092937;28;20032;-64
2023/09/15 04:29:23;;;;;;;11.73;7.28;;;12.30;99.90;;;;;;5076552;28;20051;-64
2023/09/15 04:31:49;;;;;;;7.93;6.28;;;12.20;99.90;;;;;;5092956;28;20381;-64
2023/09/15 04:34:14;;;;;;;10.77;6.15;;;12.20;99.90;;;;;;5094678;28;20063;-64
2023/09/15 04:36:40;;;;;;;6.65;5.95;;;12.20;99.90;;;;;;5093519;28;20034;-64
2023/09/15 04:39:07;;;;;;;7.75;6.00;;;12.20;99.90;;;;;;5094400;28;20024;-64
2023/09/15 04:41:32;;;;;;;8.38;5.82;;;12.20;99.90;;;;;;5094019;28;20023;-64
2023/09/15 04:43:58;;;;;;;9.93;6.45;;;12.20;99.90;;;;;;5076066;28;20024;-64
2023/09/15 04:46:24;;;;;;;7.53;5.75;;;12.20;99.90;;;;;;5093579;28;20035;-64
2023/09/15 04:48:50;;;;;;;13.18;5.97;;;12.20;99.90;;;;;;5076360;28;20043;-65
2023/09/15 04:51:16;;;;;;;7.72;5.88;;;12.20;99.90;;;;;;5093538;28;20489;-64
2023/09/15 04:53:42;;;;;;;10.18;6.15;;;12.20;99.90;;;;;;5094295;28;20132;-64
2023/09/15 04:56:08;;;;;;;8.85;5.90;;;12.20;99.90;;;;;;5094232;28;20063;-64
2023/09/15 04:58:33;;;;;;;10.98;6.22;;;12.20;99.90;;;;;;5094304;28;20028;-64
2023/09/15 05:01:00;;;;;;;11.80;5.88;;;12.20;99.90;;;;;;5094014;28;20027;-64
2023/09/15 05:03:26;;;;;;;7.07;5.55;;;12.20;99.90;;;;;;5093670;28;20044;-64
2023/09/15 05:05:52;;;;;;;9.70;5.70;;;12.20;99.90;;;;;;5093573;28;20036;-64
2023/09/15 05:08:18;;;;;;;15.00;5.93;;;12.30;99.90;;;;;;5093966;28;20039;-64
2023/09/15 05:10:47;;;;;;;9.45;5.50;;;12.30;99.90;;;;;;5093628;28;20545;-64
2023/09/15 05:13:13;;;;;;;;;;;12.30;99.90;;;;;;5094368;28;20173;-64
2023/09/15 05:15:38;;;;;;;9.25;4.78;;;12.30;99.90;;;;;;5075492;28;20303;-64
2023/09/15 05:18:09;;;;;;;9.82;5.43;;;12.30;99.90;;;;;;5093882;28;20028;-64
2023/09/15 05:20:34;;;;;;;10.30;5.82;;;12.40;99.90;;;;;;5075809;28;20032;-64
2023/09/15 05:23:00;;;;;;;8.43;5.35;;;12.40;99.90;;;;;;5093535;28;20074;-64
2023/09/15 05:25:26;;;;;;;12.57;5.93;;;12.50;99.90;;;;;;5075697;28;20029;-64
2023/09/15 05:27:51;;;;;;;9.68;5.40;;;12.50;99.90;;;;;;5093413;28;20399;-64
2023/09/15 05:30:17;;;;;;;8.95;5.65;;;12.50;99.90;;;;;;5093555;28;20482;-64
2023/09/15 05:32:43;;;;;;;6.05;5.45;;;12.60;99.90;;;;;;5093554;28;20047;-64
2023/09/15 05:35:10;;;;;;;7.88;5.43;;;12.70;99.90;;;;;;5075347;28;20074;-65
2023/09/15 05:37:36;;;;;;;7.68;5.30;;;12.80;99.90;;;;;;5093439;28;20031;-64
2023/09/15 05:40:02;;;;;;;9.55;4.95;;;12.90;99.90;;;;;;5093815;28;20513;-64
2023/09/15 05:42:28;;;;;;;8.18;4.75;;;13.00;99.90;;;;;;5093623;28;20107;-64
2023/09/15 05:44:54;;;;;;;6.70;4.90;;;13.20;99.90;;;;;;5095121;28;20198;-64
2023/09/15 05:47:21;;;;;;;8.68;4.35;;;13.40;99.90;;;;;;5079276;28;20126;-64
2023/09/15 05:49:47;;;;;;;5.45;4.00;;;13.60;99.90;;;;;;5079170;28;20032;-64
2023/09/15 05:52:13;;;;;;;6.07;3.53;;;13.80;99.90;;;;;;5070028;28;20045;-64
2023/09/15 05:54:38;;;;;;;6.10;3.65;;;14.20;99.90;;;;;;5056915;28;20032;-64
2023/09/15 05:57:04;;;;;;;2.90;2.70;;;14.50;99.90;;;;;;5056740;28;20032;-64
2023/09/15 05:59:30;;;;;;;5.45;3.33;;;14.80;99.90;;;;;;5057067;28;20395;-64
2023/09/15 06:01:56;;;;;;;6.38;3.03;;;14.80;99.90;;;;;;5057266;28;20063;-64
2023/09/15 06:04:22;;;;;;;5.70;3.50;;;15.00;99.90;;;;;;5055769;28;20029;-64
2023/09/15 06:06:48;;;;;;;4.70;3.35;;;15.20;99.90;;;;;;5055867;28;20467;-64
2023/09/15 06:09:14;;;;;;;3.30;3.00;;;15.30;99.90;;;;;;5057804;28;20025;-65
2023/09/15 06:11:39;;;;;;;4.15;3.17;;;15.70;99.90;;;;;;5056690;28;20025;-64
2023/09/15 06:14:05;;;;;;;4.25;2.65;;;15.90;99.90;;;;;;5058282;28;20536;-64
2023/09/15 06:16:34;;;;;;;3.83;2.70;;;16.00;99.90;;;;;;5056552;28;20483;-64
2023/09/15 06:19:01;;;;;;;10.48;2.47;;;16.40;99.90;;;;;;5055631;28;20070;-64
2023/09/15 06:21:26;;;;;;;2.97;2.42;;;16.60;99.90;;;;;;5056829;28;20162;-64
2023/09/15 06:23:52;;;;;;;3.05;2.30;;;16.90;99.90;;;;;;5056710;28;20103;-64
2023/09/15 06:26:18;;;;;;;5.38;2.38;;;17.10;99.90;;;;;;5056830;28;20462;-65
2023/09/15 06:28:43;;;;;;;3.05;2.42;;;17.30;99.90;;;;;;5059520;28;20033;-65
2023/09/15 06:31:09;;;;;;;4.72;2.45;;;17.50;99.90;;;;;;5060656;28;20033;-65
2023/09/15 06:33:35;;;;;;;4.45;2.35;;;17.80;99.90;;;;;;5057862;28;20025;-65
2023/09/15 06:36:01;;;;;;;3.17;2.30;;;17.80;99.90;;;;;;5057321;28;20422;-64
2023/09/15 06:38:27;;;;;;;7.05;2.70;;;17.70;99.90;;;;;;5056862;28;20437;-65
2023/09/15 06:40:53;;;;;;;2.72;2.42;;;17.80;99.90;;;;;;5057087;28;20025;-64
2023/09/15 06:43:18;;;;;;;3.33;2.67;;;18.10;99.90;;;;;;5056388;28;20108;-65
2023/09/15 06:45:44;;;;;;;3.80;2.28;;;18.40;99.90;;;;;;5057572;28;20033;-65
2023/09/15 06:48:11;;;;;;;2.47;2.20;;;18.70;99.90;;;;;;5057838;28;20036;-64
2023/09/15 06:50:36;;;;;;;6.15;2.80;;;18.80;99.90;;;;;;5057664;28;20394;-65
2023/09/15 06:53:03;;;;;;;5.88;2.88;;;18.90;99.90;;;;;;5081753;28;20056;-64
2023/09/15 06:55:28;;;;;;;3.83;2.63;;;19.10;99.90;;;;;;5094751;28;20028;-64
2023/09/15 06:57:54;;;;;;;7.78;2.40;;;19.40;99.90;;;;;;5080832;28;20036;-65
2023/09/15 07:00:20;;;;;;;2.83;2.40;;;19.70;99.90;;;;;;5096827;28;20038;-65
2023/09/15 07:02:45;;;;;;;3.65;2.30;;;20.20;99.90;;;;;;5096188;28;20020;-64
2023/09/15 07:05:11;;;;;;;4.03;2.67;;;20.80;99.90;;;;;;5096215;28;20056;-64
2023/09/15 07:07:37;;;;;;;11.25;2.45;;;21.20;99.90;;;;;;5096634;28;20380;-65
2023/09/15 07:10:04;;;;;;;5.57;2.60;;;21.60;99.90;;;;;;5077995;28;20460;-65
2023/09/15 07:12:30;;;;;;;7.75;2.90;;;22.10;99.90;;;;;;5077997;28;20031;-62
2023/09/15 07:14:58;;;;;;;8.45;3.90;;;22.20;99.90;;;;;;5096018;28;20028;-65
2023/09/15 07:17:23;;;;;;;8.80;4.23;;;22.20;99.90;;;;;;5079112;28;20112;-62
2023/09/15 07:19:49;;;;;;;8.85;4.88;;;22.40;99.90;;;;;;5097281;28;20059;-63
2023/09/15 07:22:15;;;;;;;5.95;3.85;;;22.80;98.40;;;;;;5096167;28;20100;-63
2023/09/15 07:24:41;;;;;;;4.22;3.80;;;23.00;97.90;;;;;;5096138;28;20031;-63
2023/09/15 07:27:10;;;;;;;4.20;3.80;;;23.20;98.20;;;;;;5096025;28;20032;-63
2023/09/15 07:29:36;;;;;;;5.10;3.63;;;22.90;97.40;;;;;;5095671;28;20525;-62
2023/09/15 07:32:02;;;;;;;5.57;3.47;;;23.00;98.10;;;;;;5095922;28;20020;-64
2023/09/15 07:34:28;;;;;;;6.93;3.97;;;23.20;97.10;;;;;;5079787;28;20024;-63
2023/09/15 07:36:53;;;;;;;5.22;3.92;;;23.60;96.30;;;;;;5095691;28;20047;-62
2023/09/15 07:39:19;;;;;;;5.22;3.42;;;23.90;95.20;;;;;;5095873;28;20036;-63
2023/09/15 07:41:48;;;;;;;6.13;3.67;;;24.30;94.30;;;;;;5095458;28;20056;-63
2023/09/15 07:44:14;;;;;;;5.25;3.67;;;24.60;93.40;;;;;;5095035;28;20051;-65
2023/09/15 07:46:40;;;;;;;8.25;3.65;;;24.70;92.40;;;;;;5077215;28;20032;-63
2023/09/15 07:49:07;;;;;;;5.20;3.90;;;25.00;91.90;;;;;;5095316;28;20400;-63
2023/09/15 07:51:33;;;;;;;3.60;3.17;;;25.20;91.30;;;;;;5096057;28;20039;-63
2023/09/15 07:53:58;;;;;;;3.72;3.28;;;25.20;90.60;;;;;;5094863;28;20036;-63
2023/09/15 07:56:25;;;;;;;4.63;3.40;;;24.80;90.40;;;;;;5095502;28;20384;-63
2023/09/15 07:58:51;;;;;;;7.25;3.60;;;24.50;90.70;;;;;;5076912;28;20537;-63
2023/09/15 08:01:18;;;;;;;6.97;3.67;;;24.30;90.80;;;;;;5076830;28;20026;-63
2023/09/15 08:03:44;;;;;;;6.50;4.10;;;24.60;90.80;;;;;;5095011;28;20033;-63
2023/09/15 08:06:11;;;;;;;6.30;3.40;;;24.80;90.30;;;;;;5076501;28;20024;-64
2023/09/15 08:08:36;;;;;;;5.25;3.38;;;25.10;89.60;;;;;;5094030;28;20028;-63
2023/09/15 08:11:02;;;;;;;4.25;3.60;;;25.60;87.60;;;;;;5094829;28;20466;-63
2023/09/15 08:13:28;;;;;;;4.30;2.92;;;25.90;85.70;;;;;;5094576;28;20047;-63
2023/09/15 08:15:54;;;;;;;4.50;3.40;;;26.10;84.80;;;;;;5094753;28;20107;-64
2023/09/15 08:18:20;;;;;;;3.65;3.22;;;26.30;82.90;;;;;;5094667;28;20031;-63
2023/09/15 08:20:46;;;;;;;6.95;3.78;;;26.70;81.30;;;;;;5094776;28;20031;-63
2023/09/15 08:23:14;;;;;;;5.95;3.75;;;26.80;79.40;;;;;;5076544;28;20032;-64
2023/09/15 08:25:41;;;;;;;4.72;3.40;;;26.90;78.50;;;;;;5094004;28;20058;-63
2023/09/15 08:28:07;;;;;;;5.75;3.28;;;27.00;77.80;;;;;;5094612;28;20043;-63
2023/09/15 08:30:35;;;;;;;4.75;3.15;;;27.00;77.50;;;;;;5094623;28;20024;-63
2023/09/15 08:33:02;;;;;;;7.72;3.63;;;27.20;76.00;;;;;;5094491;28;20020;-63
2023/09/15 08:35:29;;;;;;;3.75;3.42;;;27.60;73.60;;;;;;5094552;28;20031;-63
2023/09/15 08:37:54;;;;;;;7.05;3.45;;;27.60;72.20;;;;;;5094759;28;20057;-63
2023/09/15 08:40:20;;;;;;;4.20;3.55;;;27.40;72.30;;;;;;5094494;28;20041;-63
2023/09/15 08:42:46;;;;;;;5.65;3.58;;;27.10;72.30;;;;;;5076172;28;20113;-63
2023/09/15 08:45:13;;;;;;;3.90;3.50;;;27.20;71.70;;;;;;5094245;28;20027;-63
2023/09/15 08:47:43;;;;;;;5.55;3.25;;;26.80;72.00;;;;;;5076011;28;20038;-63
2023/09/15 08:50:09;;;;;;;3.38;3.08;;;27.10;70.80;;;;;;5094318;28;20060;-64
2023/09/15 08:52:36;;;;;;;3.72;3.08;;;27.80;70.40;;;;;;5075956;28;20097;-63
2023/09/15 08:55:03;;;;;;;4.28;3.10;;;28.40;69.20;;;;;;5094465;28;20098;-64
2023/09/15 08:57:30;;;;;;;5.35;3.05;;;28.80;67.60;;;;;;5076279;28;20032;-64
2023/09/15 08:59:57;;;;;;;5.05;3.33;;;29.30;66.20;;;;;;5076271;28;20042;-64
2023/09/15 09:02:24;;;;;;;5.22;2.80;;;29.50;64.10;;;;;;5075969;28;20028;-64
2023/09/15 09:04:50;;;;;;;5.40;3.28;;;29.30;65.30;;;;;;5094580;28;20355;-63
2023/09/15 09:07:18;;;;;;;3.92;3.08;;;29.80;63.80;;;;;;5094115;28;20041;-64
2023/09/15 09:09:45;;;;;;;4.07;3.78;;;30.10;62.70;;;;;;5094226;28;20024;-64
2023/09/15 09:12:11;;;;;;;4.37;3.50;;;29.50;61.80;;;;;;5076518;28;20047;-64
2023/09/15 09:14:36;;;;;;;3.65;3.35;;;29.40;61.70;;;;;;5093779;28;20454;-63
2023/09/15 09:17:03;;;;;;;3.50;3.00;;;28.90;62.90;;;;;;5075833;28;20042;-64
2023/09/15 09:19:39;;;;;;;3.17;2.97;;;28.80;62.70;;;;;;5093846;28;20540;-63
2023/09/15 09:22:07;;;;;;;4.65;3.25;;;28.90;62.70;;;;;;5075628;28;20385;-65
2023/09/15 09:24:37;;;;;;;5.13;2.80;;;29.30;62.20;;;;;;5093891;28;20020;-63
2023/09/15 09:27:09;;;;;;;3.03;2.60;;;29.20;61.70;;;;;;5093795;28;20028;-65
2023/09/15 09:29:35;;;;;;;2.55;2.35;;;29.60;61.90;;;;;;5093772;28;20036;-63
2023/09/15 09:32:01;;;;;;;3.15;2.85;;;29.80;59.70;;;;;;5094043;28;20110;-65
2023/09/15 09:34:26;;;;;;;3.90;2.42;;;30.40;58.90;;;;;;5093335;28;20484;-65
2023/09/15 09:36:52;;;;;;;3.92;2.85;;;30.70;57.30;;;;;;5093587;28;20016;-65
2023/09/15 09:39:18;;;;;;;3.08;2.88;;;31.10;56.80;;;;;;5093548;28;20069;-66
2023/09/15 09:41:45;;;;;;;3.75;3.03;;;31.40;57.00;;;;;;5075512;28;20024;-66
2023/09/15 09:44:14;;;;;;;4.72;2.63;;;31.50;54.50;;;;;;5093574;28;20031;-66
2023/09/15 09:46:41;;;;;;;3.60;2.72;;;31.50;54.80;;;;;;5093590;28;20032;-66
2023/09/15 09:49:07;;;;;;;3.40;2.42;;;30.90;55.40;;;;;;5075292;28;20036;-66
2023/09/15 09:51:36;;;;;;;3.38;2.90;;;31.40;54.20;;;;;;5093781;28;20024;-66
2023/09/15 09:54:03;;;;;;;4.05;2.78;;;31.30;53.80;;;;;;5093629;28;20088;-66
2023/09/15 09:56:31;;;;;;;3.20;2.88;;;32.00;53.50;;;;;;5093744;28;20078;-66
2023/09/15 09:59:08;;;;;;;4.97;3.10;;;32.40;52.90;;;;;;5093608;28;20519;-66
2023/09/15 10:01:34;;;;;;;4.63;3.00;;;32.40;51.30;;;;;;5094255;28;20035;-63
2023/09/15 10:04:00;;;;;;;3.72;3.15;;;30.70;54.00;;;;;;5093395;28;20024;-66
2023/09/15 10:06:27;;;;;;;5.05;3.70;;;30.20;55.10;;;;;;5093564;28;20035;-65
2023/09/15 10:08:57;;;;;;;3.92;3.58;;;30.20;54.60;;;;;;5092989;28;20032;-66
2023/09/15 10:11:23;;;;;;;4.57;3.55;;;30.50;54.40;;;;;;5093607;28;20020;-66
2023/09/15 10:13:51;;;;;;;4.18;2.78;;;30.80;53.50;;;;;;5092992;28;20032;-64
2023/09/15 10:16:17;;;;;;;4.80;3.15;;;30.60;53.90;;;;;;5093205;28;20032;-64
2023/09/15 10:18:44;;;;;;;2.85;2.65;;;30.50;54.20;;;;;;5093137;28;20040;-64
2023/09/15 10:21:11;;;;;;;3.03;2.47;;;30.90;53.60;;;;;;5093408;28;20020;-64
2023/09/15 10:23:36;;;;;;;2.63;2.38;;;30.40;54.00;;;;;;5075122;28;20027;-67
2023/09/15 10:26:04;;;;;;;2.92;2.33;;;30.90;52.60;;;;;;5092946;28;20025;-66
2023/09/15 10:28:30;;;;;;;;;;;31.60;51.50;;;;;;5093881;28;20097;-64
2023/09/15 10:30:56;;;;;;;2.88;2.60;;;32.10;51.00;;;;;;5094434;28;19904;-65
2023/09/15 10:33:28;;;;;;;3.08;2.75;;;32.70;49.80;;;;;;5078617;28;20028;-64
2023/09/15 10:36:04;;;;;;;2.92;2.63;;;32.80;48.10;;;;;;5096782;28;20119;-64
2023/09/15 10:38:32;;;;;;;5.57;2.70;;;31.60;49.00;;;;;;5096641;28;20032;-64
2023/09/15 10:41:00;;;;;;;2.85;2.50;;;31.20;50.00;;;;;;5096560;28;20047;-64
2023/09/15 10:43:26;;;;;;;3.67;2.08;;;31.60;49.90;;;;;;5097172;28;20476;-64
2023/09/15 10:46:05;;;;;;;2.80;1.98;;;32.30;47.80;;;;;;5097075;28;20025;-64
2023/09/15 10:48:46;;;;;;;3.90;2.15;;;32.10;47.40;;;;;;5096822;28;20061;-64
2023/09/15 10:51:13;;;;;;;2.38;2.00;;;32.30;48.30;;;;;;5096501;28;20024;-64
2023/09/15 10:53:49;;;;;;;2.45;2.25;;;31.90;47.40;;;;;;5096131;28;20048;-66
2023/09/15 10:56:18;;;;;;;3.78;2.22;;;30.00;49.00;;;;;;5096691;28;20027;-64
2023/09/15 10:58:46;;;;;;;;;;;30.00;49.80;;;;;;5097080;28;20118;-64
2023/09/15 11:01:13;;;;;;;1.88;1.50;;;31.00;48.90;;;;;;5096584;28;19961;-64
2023/09/15 11:03:39;;;;;;;3.72;1.83;;;32.20;45.60;;;;;;5096717;28;20016;-64
2023/09/15 11:06:09;;;;;;;3.35;1.70;;;32.80;45.20;;;;;;5096163;28;20517;-65
2023/09/15 11:08:36;;;;;;;1.38;1.30;;;32.60;44.60;;;;;;5078301;28;20028;-64
2023/09/15 11:11:09;;;;;;;2.17;1.35;;;32.40;42.50;;;;;;5078045;28;20081;-64
2023/09/15 11:13:35;;;;;;;2.25;1.40;;;32.30;43.60;;;;;;5078315;28;20385;-64
2023/09/15 11:16:01;;;;;;;1.48;1.38;;;32.30;44.40;;;;;;5096485;28;20032;-64
2023/09/15 11:18:31;;;;;;;1.73;1.63;;;32.90;43.50;;;;;;5078232;28;20036;-64
2023/09/15 11:20:58;;;;;;;1.73;1.63;;;33.10;44.00;;;;;;5095944;28;20024;-64
2023/09/15 11:23:27;;;;;;;1.90;1.60;;;32.10;44.40;;;;;;5096093;28;20024;-63
2023/09/15 11:26:04;;;;;;;5.05;2.10;;;32.00;44.50;;;;;;5096073;28;20031;-64
2023/09/15 11:28:33;;;;;;;2.50;1.55;;;31.90;44.70;;;;;;5079269;28;20024;-65
2023/09/15 11:31:04;;;;;;;1.48;1.40;;;31.90;44.40;;;;;;5102772;28;20062;-70
2023/09/15 11:33:29;;;;;;;1.80;1.70;;;32.40;43.30;;;;;;5084396;28;20024;-70
2023/09/15 11:35:57;;;;;;;1.73;1.60;;;32.00;45.50;;;;;;5084433;28;20028;-66
2023/09/15 11:38:23;;;;;;;4.43;1.77;;;31.70;46.30;;;;;;5101265;28;20044;-66
2023/09/15 11:40:50;;;;;;;1.92;1.80;;;32.60;44.50;;;;;;5100887;28;20032;-66
2023/09/15 11:43:17;;;;;;;1.92;1.77;;;33.10;43.40;;;;;;5096439;28;20050;-69
2023/09/15 11:45:43;;;;;;;1.85;1.75;;;33.70;43.00;;;;;;5095703;28;20481;-66
2023/09/15 11:48:11;;;;;;;2.00;1.90;;;34.00;43.20;;;;;;5095790;28;20043;-66
2023/09/15 11:50:36;;;;;;;;;;;35.00;42.50;;;;;;5095783;28;20028;-66
2023/09/15 11:53:03;;;;;;;2.35;1.92;;;35.20;41.50;;;;;;5095075;28;19916;-66
2023/09/15 11:55:29;;;;;;;3.08;2.00;;;35.30;41.70;;;;;;5077030;28;20077;-67
2023/09/15 11:57:56;;;;;;;2.88;1.90;;;35.50;41.30;;;;;;5076662;28;20036;-66
2023/09/15 12:00:24;;;;;;;1.70;1.60;;;35.80;40.80;;;;;;5095210;28;20032;-66
2023/09/15 12:02:52;;;;;;;2.28;2.05;;;35.90;40.70;;;;;;5095449;28;20020;-66
2023/09/15 12:05:22;;;;;;;2.28;2.08;;;34.90;41.00;;;;;;5095105;28;20031;-63
2023/09/15 12:07:49;;;;;;;2.70;2.47;;;34.50;43.20;;;;;;5077134;28;20039;-63
2023/09/15 12:10:16;;;;;;;2.85;1.95;;;33.70;42.80;;;;;;5076896;28;20028;-63
2023/09/15 12:12:43;;;;;;;5.40;2.40;;;32.40;44.00;;;;;;5094969;28;20039;-63
2023/09/15 12:15:09;;;;;;;2.58;2.20;;;31.50;45.50;;;;;;5076810;28;20345;-63
2023/09/15 12:17:39;;;;;;;2.13;2.03;;;31.30;46.30;;;;;;5076577;28;20135;-63
2023/09/15 12:20:07;;;;;;;3.60;2.28;;;31.60;47.60;;;;;;5095035;28;20111;-63
2023/09/15 12:22:38;;;;;;;2.78;1.90;;;31.90;47.50;;;;;;5094945;28;20052;-63
2023/09/15 12:25:04;;;;;;;2.95;2.67;;;32.20;45.20;;;;;;5076453;28;20032;-63
2023/09/15 12:27:32;;;;;;;2.50;2.25;;;31.80;45.10;;;;;;5076582;28;20028;-62
2023/09/15 12:30:01;;;;;;;2.92;2.50;;;32.00;45.60;;;;;;5093174;28;20350;-63
2023/09/15 12:32:27;;;;;;;2.55;1.98;;;32.60;45.60;;;;;;5094285;28;20024;-63
2023/09/15 12:34:54;;;;;;;3.45;2.00;;;32.20;45.50;;;;;;5076465;28;20024;-63
2023/09/15 12:37:19;;;;;;;3.60;2.00;;;32.40;45.40;;;;;;5076172;28;20046;-63
2023/09/15 12:39:45;;;;;;;3.22;2.20;;;32.60;45.10;;;;;;5094679;28;20381;-63
2023/09/15 12:42:11;;;;;;;1.95;1.85;;;32.80;44.30;;;;;;5076367;28;20036;-62
2023/09/15 12:44:37;;;;;;;2.75;2.20;;;33.00;44.90;;;;;;5095470;28;20488;-63